Barkersville, New York
Current Conditions -  °F | °C
As of 5:55 PM on Tuesday 21 Oct 2014 (Local Time) from KNY0 Reporting Station
Overcast Overcast  
Wind Chill: 45°   Ceiling: 1600
Heat Index: 49°   Visibility: 10mi
Dew Point: 47°   Wind: 9mph
Humidity: 92%   Direction: 40°NE
Pressure: 29.93"   Gusts: NA
Location:  43.1097°N, 74.0176°W
Report Text: KNY0 212155Z AUTO 04008KT 10SM OVC016 10/08 A2993 RMK AO2 T00950082
Loading
Personal Weather Stations






























Interactive Weather Map New forecast layout! Learn more

10-Day Weather Forecast

Advertisements
Track Severe Weather on mobile